This is the latest recevied weather packets stored in our database for station/object WP3XM. If no packets are shown the sender has not sent any weather packets the latest 1 day(s).
| Time | Temp. | Humidity | Pressure | Rain* | Wind** | Luminosity | Snow |
|---|---|---|---|---|---|---|---|
| 1778082801 | 29.44° C | 67% | 1020.2 hPa | 0 mm | - | 243 W/m² | - |
| 1778081673 | 29.44° C | 66% | 1020.4 hPa | 0 mm | - | 1049 W/m² | - |
| 1778081371 | 30° C | 65% | 1020.3 hPa | 0 mm | - | 208 W/m² | - |
| 1778080766 | 29.44° C | 68% | 1020.5 hPa | 0 mm | - | 1090 W/m² | - |
| 1778080160 | 29.44° C | 67% | 1020.5 hPa | 0 mm | - | 1031 W/m² | - |
| 1778077434 | 28.89° C | 70% | 1020.6 hPa | 0 mm | - | 937 W/m² | - |
| 1778076830 | 28.89° C | 71% | 1020.5 hPa | 0 mm | - | 296 W/m² | - |
| 1778076528 | 28.89° C | 72% | 1020.6 hPa | 0 mm | - | 894 W/m² | - |
| 1778075618 | 28.33° C | 75% | 1020.3 hPa | 0 mm | - | 879 W/m² | - |
| 1778075315 | 28.89° C | 75% | 1020.4 hPa | 0 mm | - | 759 W/m² | - |
| 1778075011 | 28.33° C | 77% | 1020.2 hPa | 0 mm | - | 891 W/m² | - |
| 1778074405 | 27.78° C | 77% | 1020.4 hPa | 0 mm | - | 853 W/m² | - |
| 1778073799 | 27.78° C | 80% | 1020.4 hPa | 0 mm | - | 857 W/m² | - |
| 1778073497 | 27.78° C | 77% | 1020.3 hPa | 0 mm | - | 170 W/m² | - |
| 1778071075 | 26.67° C | 83% | 1019.9 hPa | 0 mm | - | 110 W/m² | - |
| 1778070470 | 26.67° C | 83% | 1019.9 hPa | 0 mm | - | 159 W/m² | - |
| 1778069562 | 27.22° C | 82% | 1019.9 hPa | 0 mm | - | 217 W/m² | - |
| 1778069259 | 27.22° C | 84% | 1019.7 hPa | 0 mm | - | 757 W/m² | - |
| 1778068654 | 26.11° C | 87% | 1019.7 hPa | 0 mm | - | 472 W/m² | - |
| 1778068050 | 26.67° C | 85% | 1019.7 hPa | 0 mm | - | 82 W/m² | - |
| 1778066234 | 26.11° C | 89% | 1019.4 hPa | 0 mm | - | 89 W/m² | - |
| 1778065932 | 26.11° C | 89% | 1019.6 hPa | 0 mm | - | 55 W/m² | - |
| 1778064115 | 24.44° C | 94% | 1019.3 hPa | 0 mm | - | 47 W/m² | - |
| 1778063812 | 24.44° C | 94% | 1019.4 hPa | 0 mm | - | 82 W/m² | - |
| 1778063509 | 24.44° C | 94% | 1019.3 hPa | 0 mm | - | 58 W/m² | - |
* Rain latest hour (hover to see other rain measurements)
** Current wind speed in m/s (hover to see current wind gust speed)